Time;durP1;ratioP1;P1;durP2;ratioP2;P2;SDS_P1;SDS_P2;PMS_P1;PMS_P2;Temp;Humidity;BMP_temperature;BMP_pressure;BME280_temperature;BME280_humidity;BME280_pressure;Samples;Min_cycle;Max_cycle;Signal;HPM_P1;HPM_P2
2022/04/30 00:04:35;;;;;;;6.50;4.95;;;16.20;57.30;;;;;;10159445;28;20044;-65
2022/04/30 00:09:25;;;;;;;5.25;4.22;;;16.10;58.20;;;;;;10156314;28;20063;-66
2022/04/30 00:14:16;;;;;;;6.30;3.78;;;16.00;58.40;;;;;;10160176;28;20072;-63
2022/04/30 00:19:07;;;;;;;4.82;3.80;;;15.90;58.80;;;;;;10148540;28;20074;-67
2022/04/30 00:23:57;;;;;;;7.65;4.72;;;16.00;59.00;;;;;;10154570;28;20040;-63
2022/04/30 00:28:48;;;;;;;13.68;4.40;;;15.90;59.10;;;;;;10147321;28;20746;-66
2022/04/30 00:33:39;;;;;;;5.30;3.80;;;15.70;59.90;;;;;;10147446;28;20028;-64
2022/04/30 00:38:29;;;;;;;5.55;3.63;;;15.70;60.80;;;;;;10151221;28;20427;-66
2022/04/30 00:43:20;;;;;;;5.43;4.13;;;15.60;61.30;;;;;;10154080;28;20056;-62
2022/04/30 00:48:10;;;;;;;8.18;5.38;;;15.70;61.30;;;;;;10152514;28;20078;-61
2022/04/30 00:53:03;;;;;;;6.03;4.63;;;15.60;61.70;;;;;;10153675;28;20028;-62
2022/04/30 00:57:57;;;;;;;7.32;5.03;;;15.40;62.40;;;;;;10150132;28;20488;-62
2022/04/30 01:02:47;;;;;;;5.53;4.03;;;15.20;63.40;;;;;;10149713;28;20174;-64
2022/04/30 01:07:40;;;;;;;6.97;4.22;;;15.40;64.60;;;;;;10149791;28;20107;-65
2022/04/30 01:12:30;;;;;;;8.80;4.57;;;15.20;66.90;;;;;;10158552;28;20517;-63
2022/04/30 01:17:22;;;;;;;7.22;4.68;;;15.30;67.30;;;;;;10152558;28;20028;-63
2022/04/30 01:22:33;;;;;;;7.18;5.15;;;15.20;67.90;;;;;;10146875;28;20040;-60
2022/04/30 01:27:31;;;;;;;8.07;4.90;;;15.30;69.50;;;;;;10154465;28;20044;-63
2022/04/30 01:37:58;;;;;;;8.32;5.43;;;15.20;70.80;;;;;;10149233;28;20695;-62
2022/04/30 01:42:48;;;;;;;8.18;5.63;;;15.10;69.90;;;;;;10159323;28;20043;-62
2022/04/30 01:47:41;;;;;;;11.40;5.97;;;15.00;70.50;;;;;;10156057;28;20029;-63
2022/04/30 01:52:31;;;;;;;8.70;5.78;;;15.00;71.00;;;;;;10159957;28;20031;-62
2022/04/30 01:57:23;;;;;;;7.55;5.20;;;14.90;71.70;;;;;;10150916;28;20491;-61
2022/04/30 02:02:13;;;;;;;8.05;5.28;;;14.80;72.10;;;;;;10154590;28;20032;-64
2022/04/30 02:07:05;;;;;;;9.45;5.78;;;14.80;73.60;;;;;;10156128;28;20039;-62
2022/04/30 02:11:59;;;;;;;12.02;5.68;;;14.80;74.30;;;;;;10166820;28;20053;-62
2022/04/30 02:16:50;;;;;;;10.75;6.45;;;14.90;74.60;;;;;;10155681;28;20028;-64
2022/04/30 02:21:42;;;;;;;7.18;5.72;;;14.80;74.60;;;;;;10136208;28;20510;-61
2022/04/30 02:26:33;;;;;;;9.88;6.65;;;14.90;74.90;;;;;;10143369;28;20186;-60
2022/04/30 02:31:25;;;;;;;8.68;5.63;;;14.90;75.30;;;;;;10153819;28;20115;-63
2022/04/30 02:36:16;;;;;;;9.40;6.72;;;14.90;75.80;;;;;;10151160;28;20040;-61
2022/04/30 02:41:07;;;;;;;9.55;5.78;;;15.00;76.00;;;;;;10152949;28;20025;-63
2022/04/30 02:45:58;;;;;;;9.38;6.22;;;14.90;76.50;;;;;;10159237;28;20028;-61
2022/04/30 02:50:48;;;;;;;11.10;5.65;;;14.90;76.90;;;;;;10149520;28;20020;-62
2022/04/30 02:55:40;;;;;;;15.88;6.85;;;14.90;77.50;;;;;;10157934;28;20284;-63
2022/04/30 03:00:39;;;;;;;12.57;7.13;;;14.70;78.20;;;;;;10177724;28;20085;-63
2022/04/30 03:05:31;;;;;;;10.18;6.32;;;14.60;78.40;;;;;;10163249;28;20044;-62
2022/04/30 03:10:21;;;;;;;10.75;6.93;;;14.60;79.40;;;;;;10171559;28;20466;-62
2022/04/30 03:15:12;;;;;;;10.73;7.43;;;14.50;79.40;;;;;;10173949;28;20106;-61
2022/04/30 03:25:12;;;;;;;12.65;6.65;;;14.40;80.00;;;;;;10160972;28;20340;-61
2022/04/30 03:30:03;;;;;;;15.40;8.65;;;14.40;80.00;;;;;;10157129;28;20098;-61
2022/04/30 03:34:54;;;;;;;12.20;7.05;;;14.20;80.60;;;;;;10166739;28;20064;-62
2022/04/30 03:39:45;;;;;;;12.88;7.97;;;14.20;81.30;;;;;;10174407;28;20027;-63
2022/04/30 03:44:35;;;;;;;12.82;8.85;;;14.10;81.50;;;;;;10155415;28;20052;-61
2022/04/30 03:49:26;;;;;;;13.32;8.35;;;13.90;82.40;;;;;;10168274;28;20066;-63
2022/04/30 03:54:17;;;;;;;13.60;7.80;;;14.00;82.90;;;;;;10155700;28;20040;-64
2022/04/30 03:59:08;;;;;;;13.57;7.28;;;14.10;83.40;;;;;;10165723;28;20032;-66
2022/04/30 04:04:00;;;;;;;12.38;7.65;;;14.10;84.00;;;;;;10166875;28;20102;-63
2022/04/30 04:08:52;;;;;;;13.90;8.88;;;14.20;84.20;;;;;;10158898;28;20517;-62
2022/04/30 04:18:54;;;;;;;17.38;9.18;;;14.30;84.80;;;;;;10156503;28;20398;-66
2022/04/30 04:28:58;;;;;;;15.95;8.55;;;14.30;85.30;;;;;;10158556;28;20553;-63
2022/04/30 04:33:50;;;;;;;14.85;7.78;;;14.30;85.80;;;;;;10157314;28;20027;-63
2022/04/30 04:38:40;;;;;;;13.23;7.97;;;14.30;86.70;;;;;;10160192;28;20412;-64
2022/04/30 04:43:31;;;;;;;15.45;8.10;;;14.30;87.40;;;;;;10147434;28;20035;-64
2022/04/30 04:48:22;;;;;;;14.65;7.97;;;14.10;88.40;;;;;;10149350;28;20032;-62
2022/04/30 04:53:13;;;;;;;18.77;9.98;;;14.10;88.50;;;;;;10151023;28;20036;-61
2022/04/30 04:58:04;;;;;;;15.65;8.73;;;14.10;88.90;;;;;;10152288;28;20052;-62
2022/04/30 05:02:55;;;;;;;13.05;7.55;;;14.10;89.10;;;;;;10154262;28;20037;-63
2022/04/30 05:07:45;;;;;;;17.58;8.18;;;14.00;89.40;;;;;;10157545;28;20028;-61
2022/04/30 05:12:36;;;;;;;19.42;8.80;;;13.90;90.10;;;;;;10158215;28;20074;-61
2022/04/30 05:17:26;;;;;;;15.43;8.85;;;13.90;90.10;;;;;;10139537;28;20039;-61
2022/04/30 05:22:18;;;;;;;16.48;8.60;;;13.80;90.30;;;;;;10143538;28;20028;-65
2022/04/30 05:27:08;;;;;;;23.77;9.07;;;13.70;90.50;;;;;;10156484;28;20490;-62
2022/04/30 05:31:59;;;;;;;13.07;8.52;;;13.70;90.50;;;;;;10148004;28;20020;-63
2022/04/30 05:36:50;;;;;;;15.70;8.68;;;13.60;90.50;;;;;;10149813;28;20032;-63
2022/04/30 05:41:40;;;;;;;16.38;8.10;;;13.60;90.60;;;;;;10153335;28;20131;-62
2022/04/30 05:46:31;;;;;;;16.85;8.60;;;13.60;90.70;;;;;;10153225;28;20127;-62
2022/04/30 05:51:22;;;;;;;15.25;8.82;;;13.60;90.60;;;;;;10138602;28;20382;-61
2022/04/30 05:56:12;;;;;;;15.75;9.88;;;13.40;91.10;;;;;;10143034;28;20055;-65
2022/04/30 06:01:03;;;;;;;14.38;8.55;;;13.30;90.90;;;;;;10147449;28;20283;-63
2022/04/30 06:05:54;;;;;;;15.52;8.40;;;13.50;91.00;;;;;;10157558;28;20073;-67
2022/04/30 06:10:45;;;;;;;16.73;8.77;;;13.50;91.10;;;;;;10157470;28;20052;-67
2022/04/30 06:15:35;;;;;;;15.10;8.23;;;13.50;91.20;;;;;;10141505;28;20438;-64
2022/04/30 06:20:26;;;;;;;19.33;10.13;;;13.50;91.20;;;;;;10152751;28;20035;-62
2022/04/30 06:25:17;;;;;;;15.57;9.40;;;13.50;91.60;;;;;;10152693;28;20136;-65
2022/04/30 06:30:08;;;;;;;17.40;9.35;;;13.70;91.30;;;;;;10166033;28;20394;-66
2022/04/30 06:34:59;;;;;;;15.18;8.18;;;13.80;91.50;;;;;;10163949;28;20058;-66
2022/04/30 06:39:50;;;;;;;20.05;8.75;;;13.90;91.30;;;;;;10170336;28;20529;-63
2022/04/30 06:44:40;;;;;;;20.63;10.25;;;13.90;91.50;;;;;;10154938;28;20407;-61
2022/04/30 06:49:31;;;;;;;13.88;8.63;;;14.00;91.50;;;;;;10158522;28;20027;-61
2022/04/30 06:59:36;;;;;;;16.67;8.73;;;13.80;91.50;;;;;;10169778;28;20105;-63
2022/04/30 07:04:29;;;;;;;15.40;9.30;;;14.00;91.50;;;;;;10173073;28;20067;-61
2022/04/30 07:09:20;;;;;;;17.25;8.77;;;14.00;91.60;;;;;;10164051;28;20043;-61
2022/04/30 07:14:11;;;;;;;18.77;8.95;;;14.20;91.40;;;;;;10173495;28;20035;-62
2022/04/30 07:19:03;;;;;;;19.30;9.85;;;13.90;91.70;;;;;;10152335;28;20361;-62
2022/04/30 07:23:54;;;;;;;19.60;9.32;;;14.00;91.70;;;;;;10154253;28;20048;-62
2022/04/30 07:28:46;;;;;;;19.35;9.30;;;13.90;91.80;;;;;;10162412;28;20620;-64
2022/04/30 07:33:36;;;;;;;16.10;8.93;;;14.00;91.70;;;;;;10168273;28;20036;-66
2022/04/30 07:38:27;;;;;;;17.83;10.23;;;14.20;91.50;;;;;;10153954;28;20110;-63
2022/04/30 07:43:18;;;;;;;14.77;8.85;;;14.30;91.50;;;;;;10168928;28;20051;-64
2022/04/30 07:48:08;;;;;;;16.67;9.30;;;14.50;91.30;;;;;;10164045;28;20038;-62
2022/04/30 07:52:59;;;;;;;20.13;9.85;;;14.60;91.30;;;;;;10166420;28;20035;-61
2022/04/30 07:57:50;;;;;;;17.95;9.90;;;14.70;91.30;;;;;;10167753;28;20096;-62
2022/04/30 08:02:42;;;;;;;16.45;9.63;;;14.90;91.10;;;;;;10137837;28;20041;-63
2022/04/30 08:07:32;;;;;;;16.38;8.80;;;15.00;91.10;;;;;;10146027;28;20033;-62
2022/04/30 08:12:23;;;;;;;19.33;8.98;;;15.00;91.10;;;;;;10173280;28;20035;-65
2022/04/30 08:17:14;;;;;;;16.38;9.98;;;15.20;90.90;;;;;;10147284;28;20120;-65
2022/04/30 08:22:04;;;;;;;14.80;9.23;;;15.60;90.50;;;;;;10132337;28;20075;-68
2022/04/30 08:26:56;;;;;;;16.13;9.10;;;16.00;90.20;;;;;;10158645;28;20051;-63
2022/04/30 08:31:47;;;;;;;14.65;8.30;;;16.50;89.60;;;;;;10158661;28;20317;-65
2022/04/30 08:36:37;;;;;;;13.25;7.88;;;16.20;90.20;;;;;;10148336;28;20028;-67
2022/04/30 08:41:28;;;;;;;13.75;7.47;;;16.10;89.50;;;;;;10169457;28;20069;-65
2022/04/30 08:46:20;;;;;;;14.63;8.00;;;16.00;89.90;;;;;;10157151;28;20410;-64
2022/04/30 08:51:11;;;;;;;13.60;8.18;;;16.10;89.80;;;;;;10150961;28;20031;-61
2022/04/30 08:56:08;;;;;;;16.55;7.95;;;16.10;89.10;;;;;;10151961;28;20032;-63
2022/04/30 09:01:03;;;;;;;14.80;8.32;;;15.80;89.50;;;;;;10162106;28;20077;-63
2022/04/30 09:05:58;;;;;;;12.30;7.67;;;15.70;90.10;;;;;;10157342;28;20079;-63
2022/04/30 09:10:49;;;;;;;;;;;16.00;88.80;;;;;;10148153;28;20450;-61
2022/04/30 09:15:42;;;;;;;11.77;7.38;;;16.30;87.90;;;;;;10143828;28;19947;-62
2022/04/30 09:20:54;;;;;;;9.65;7.13;;;16.60;87.70;;;;;;10146100;28;20406;-61
2022/04/30 09:25:53;;;;;;;9.30;7.03;;;16.40;86.90;;;;;;10152072;28;20053;-60
2022/04/30 09:30:43;;;;;;;11.43;7.07;;;16.30;87.40;;;;;;10148603;28;20047;-63
2022/04/30 09:40:52;;;;;;;12.43;7.72;;;16.40;87.60;;;;;;10149071;28;20036;-63
2022/04/30 09:45:43;;;;;;;10.15;5.90;;;16.50;87.00;;;;;;10148228;28;20051;-61
2022/04/30 09:55:53;;;;;;;10.70;6.50;;;16.80;86.40;;;;;;10152973;28;20042;-63
2022/04/30 10:00:44;;;;;;;7.32;5.30;;;17.30;85.30;;;;;;10153508;28;20025;-62
2022/04/30 10:05:36;;;;;;;8.05;5.18;;;17.20;85.10;;;;;;10150573;28;20048;-62
2022/04/30 10:10:38;;;;;;;9.13;5.32;;;17.20;85.20;;;;;;10161646;28;20397;-63
2022/04/30 10:15:37;;;;;;;6.60;4.70;;;17.30;84.60;;;;;;10151642;28;20046;-65
2022/04/30 10:20:37;;;;;;;6.43;4.25;;;17.30;84.00;;;;;;10134616;28;20032;-61
2022/04/30 10:25:32;;;;;;;6.00;4.43;;;17.10;83.90;;;;;;10153389;28;20109;-61
2022/04/30 10:30:28;;;;;;;;;;;17.00;84.00;;;;;;10159613;28;20486;-62
2022/04/30 10:35:28;;;;;;;7.82;5.40;;;17.10;83.40;;;;;;10167736;28;19947;-61
2022/04/30 10:40:19;;;;;;;9.70;5.55;;;17.40;83.00;;;;;;10159942;28;20024;-61
2022/04/30 10:45:15;;;;;;;8.48;4.88;;;17.00;83.40;;;;;;10149208;28;20127;-62
2022/04/30 10:50:06;;;;;;;10.55;6.30;;;17.10;83.40;;;;;;10151369;28;20062;-61
2022/04/30 10:54:58;;;;;;;8.05;5.22;;;17.20;83.20;;;;;;10145432;28;20569;-62
2022/04/30 10:59:57;;;;;;;9.23;5.57;;;17.10;83.50;;;;;;10148194;28;20028;-62
2022/04/30 11:04:48;;;;;;;10.23;6.68;;;17.10;83.60;;;;;;10162436;28;20051;-60
2022/04/30 11:09:43;;;;;;;13.18;7.95;;;17.10;83.30;;;;;;10152226;28;20028;-62
2022/04/30 11:14:34;;;;;;;;;;;17.20;83.40;;;;;;10160268;28;20634;-62
2022/04/30 11:19:24;;;;;;;11.52;7.07;;;17.10;83.50;;;;;;10146392;28;20148;-62
2022/04/30 11:24:24;;;;;;;9.52;6.53;;;17.20;83.30;;;;;;10154637;28;20401;-60
2022/04/30 11:29:15;;;;;;;8.93;6.63;;;17.30;83.00;;;;;;10155763;28;20123;-62
2022/04/30 11:34:12;;;;;;;10.95;6.07;;;17.30;83.20;;;;;;10148609;28;20024;-60
2022/04/30 11:39:02;;;;;;;11.13;6.60;;;17.70;82.40;;;;;;10162655;28;20029;-62
2022/04/30 11:43:59;;;;;;;10.57;6.03;;;17.80;82.40;;;;;;10151581;28;20057;-62
2022/04/30 11:48:49;;;;;;;6.97;5.88;;;17.60;82.60;;;;;;10150231;28;20056;-61
2022/04/30 11:53:40;;;;;;;8.77;6.07;;;17.30;83.30;;;;;;10150043;28;20529;-66
2022/04/30 11:58:42;;;;;;;11.00;6.57;;;17.50;82.50;;;;;;10144679;28;20101;-65
2022/04/30 12:03:32;;;;;;;11.75;7.80;;;17.60;82.00;;;;;;10159301;28;20047;-65
2022/04/30 12:08:29;;;;;;;11.18;6.57;;;17.40;81.80;;;;;;10159776;28;20034;-62
2022/04/30 12:13:26;;;;;;;10.38;7.22;;;17.40;81.90;;;;;;10160575;28;20291;-63
2022/04/30 12:28:46;;;;;;;9.40;6.60;;;18.40;80.60;;;;;;10166612;28;20098;-63
2022/04/30 12:33:48;;;;;;;8.35;5.40;;;19.00;80.40;;;;;;10156765;28;20067;-61
2022/04/30 12:38:39;;;;;;;10.23;6.75;;;19.00;79.80;;;;;;10157766;28;20077;-61
2022/04/30 12:43:33;;;;;;;7.55;5.05;;;19.10;80.10;;;;;;10148442;28;20040;-62
2022/04/30 12:48:23;;;;;;;10.52;6.82;;;18.80;80.10;;;;;;10152331;28;20078;-62
2022/04/30 12:53:14;;;;;;;9.70;6.63;;;19.10;80.30;;;;;;10151664;28;20075;-63
2022/04/30 12:58:07;;;;;;;9.75;7.10;;;19.60;79.80;;;;;;10154402;28;20048;-62
2022/04/30 13:02:57;;;;;;;10.82;6.47;;;20.20;79.30;;;;;;10155248;28;20061;-63
2022/04/30 13:07:48;;;;;;;9.48;5.70;;;20.80;78.10;;;;;;10144008;28;20024;-61
2022/04/30 13:17:49;;;;;;;8.23;5.80;;;21.00;76.10;;;;;;10147681;28;20094;-62
2022/04/30 13:22:39;;;;;;;8.13;6.22;;;21.90;73.40;;;;;;10153147;28;20483;-63
2022/04/30 13:27:31;;;;;;;8.90;5.75;;;20.30;74.00;;;;;;10157863;28;20048;-65
2022/04/30 13:32:22;;;;;;;9.82;5.68;;;21.80;73.10;;;;;;10148039;28;20032;-64
2022/04/30 13:37:12;;;;;;;8.98;5.65;;;23.80;69.50;;;;;;10156474;28;20031;-64
2022/04/30 13:42:04;;;;;;;11.90;6.57;;;22.60;69.40;;;;;;10159192;28;20040;-63
2022/04/30 13:46:54;;;;;;;8.05;5.57;;;21.00;71.40;;;;;;10159151;28;20043;-62
2022/04/30 13:51:45;;;;;;;10.15;6.30;;;20.80;71.00;;;;;;10158481;28;20395;-66
2022/04/30 13:56:38;;;;;;;10.32;5.90;;;21.00;71.10;;;;;;10145356;28;20610;-62
2022/04/30 14:01:29;;;;;;;8.25;6.35;;;20.80;70.40;;;;;;10158617;28;20020;-60
2022/04/30 14:06:20;;;;;;;8.43;6.05;;;20.90;70.50;;;;;;10153485;28;20036;-61
2022/04/30 14:11:10;;;;;;;6.13;4.68;;;21.00;70.10;;;;;;10154374;28;20028;-62
2022/04/30 14:16:02;;;;;;;7.63;5.63;;;19.90;71.60;;;;;;10134719;28;20403;-65
2022/04/30 14:20:53;;;;;;;9.52;6.15;;;20.50;71.70;;;;;;10138816;28;20382;-67
2022/04/30 14:25:44;;;;;;;9.40;5.82;;;20.30;70.60;;;;;;10148706;28;20156;-64
2022/04/30 14:30:38;;;;;;;8.40;5.95;;;22.10;69.50;;;;;;10141070;28;20552;-64
2022/04/30 14:35:29;;;;;;;;;;;23.90;66.30;;;;;;10161714;28;20456;-63
2022/04/30 14:40:20;;;;;;;8.95;4.88;;;23.00;65.10;;;;;;10157834;28;20454;-62
2022/04/30 14:45:11;;;;;;;6.65;5.32;;;23.30;66.40;;;;;;10155625;28;20044;-62
2022/04/30 14:50:06;;;;;;;6.50;5.43;;;24.10;63.60;;;;;;10153626;28;20013;-64
2022/04/30 14:54:57;;;;;;;10.15;6.13;;;23.60;64.60;;;;;;10151745;28;20345;-62
2022/04/30 14:59:48;;;;;;;6.40;5.28;;;23.00;64.00;;;;;;10155591;28;20096;-62
2022/04/30 15:04:38;;;;;;;8.98;6.05;;;23.00;63.70;;;;;;10153659;28;20036;-65
2022/04/30 15:09:29;;;;;;;6.55;4.97;;;21.40;64.60;;;;;;10164044;28;20569;-65
2022/04/30 15:14:20;;;;;;;13.90;6.50;;;22.30;63.40;;;;;;10166332;28;20073;-63
2022/04/30 15:19:11;;;;;;;8.73;5.82;;;20.90;65.00;;;;;;10143952;28;20040;-66
2022/04/30 15:24:01;;;;;;;7.80;5.53;;;22.30;62.80;;;;;;10156949;28;20344;-64
2022/04/30 15:28:53;;;;;;;8.32;6.28;;;20.70;65.00;;;;;;10157160;28;20438;-66
2022/04/30 15:33:44;;;;;;;9.27;5.70;;;21.00;64.90;;;;;;10164625;28;20032;-64
2022/04/30 15:38:35;;;;;;;14.13;6.75;;;21.10;64.10;;;;;;10160442;28;20101;-64
2022/04/30 15:43:26;;;;;;;9.70;6.45;;;20.40;64.50;;;;;;10158827;28;20044;-61
2022/04/30 15:58:36;;;;;;;9.80;5.85;;;22.60;61.50;;;;;;10156641;28;20047;-65
2022/04/30 16:03:27;;;;;;;11.20;5.82;;;23.40;59.80;;;;;;10156759;28;20052;-63
2022/04/30 16:08:18;;;;;;;8.07;6.13;;;21.70;62.20;;;;;;10160174;28;20028;-63
2022/04/30 16:13:09;;;;;;;9.30;5.95;;;21.10;63.10;;;;;;10172331;28;20047;-63
2022/04/30 16:17:59;;;;;;;7.85;5.30;;;21.80;62.70;;;;;;10168119;28;20027;-62
2022/04/30 16:22:50;;;;;;;7.55;5.82;;;25.00;57.30;;;;;;10153844;28;20028;-64
2022/04/30 16:27:41;;;;;;;9.20;5.85;;;26.80;54.40;;;;;;10165440;28;20044;-65
2022/04/30 16:32:32;;;;;;;7.75;5.47;;;27.30;53.20;;;;;;10155066;28;20024;-66
2022/04/30 16:37:22;;;;;;;7.22;5.30;;;27.30;53.00;;;;;;10160985;28;20028;-63
2022/04/30 16:42:13;;;;;;;8.07;6.30;;;25.00;55.00;;;;;;10148013;28;20036;-62
2022/04/30 16:47:04;;;;;;;7.45;5.70;;;24.10;55.40;;;;;;10149899;28;20028;-60
2022/04/30 16:57:05;;;;;;;8.35;4.97;;;23.40;56.30;;;;;;10163074;28;20074;-61
2022/04/30 17:01:56;;;;;;;7.22;5.88;;;24.30;53.90;;;;;;10166621;28;20009;-64
2022/04/30 17:06:47;;;;;;;6.05;4.95;;;21.80;58.20;;;;;;10166008;28;20091;-62
2022/04/30 17:11:37;;;;;;;7.28;5.22;;;23.90;54.50;;;;;;10156523;28;20024;-61
2022/04/30 17:16:32;;;;;;;7.28;5.50;;;23.80;54.00;;;;;;10158846;28;20410;-62
2022/04/30 17:21:23;;;;;;;8.30;4.90;;;21.50;57.20;;;;;;10149523;28;20032;-62
2022/04/30 17:26:14;;;;;;;9.50;5.70;;;20.60;59.00;;;;;;10144832;28;20120;-63
2022/04/30 17:41:23;;;;;;;10.88;5.45;;;18.80;61.50;;;;;;10159261;28;20055;-62
2022/04/30 17:46:14;;;;;;;8.82;4.60;;;18.20;62.20;;;;;;10152260;28;20426;-65
2022/04/30 17:51:05;;;;;;;10.02;5.60;;;17.80;62.70;;;;;;10153103;28;20016;-61
2022/04/30 17:55:55;;;;;;;7.43;5.30;;;17.50;63.40;;;;;;10145115;28;20032;-61
2022/04/30 18:00:48;;;;;;;7.88;4.82;;;17.20;64.50;;;;;;10156380;28;20432;-63
2022/04/30 18:05:39;;;;;;;8.15;5.80;;;16.90;65.60;;;;;;10172060;28;20047;-62
2022/04/30 18:10:30;;;;;;;11.25;6.20;;;16.60;66.30;;;;;;10154225;28;20489;-63
2022/04/30 18:15:20;;;;;;;8.48;5.10;;;16.40;66.60;;;;;;10147480;28;20435;-65
2022/04/30 18:20:13;;;;;;;6.95;4.22;;;16.40;66.90;;;;;;10146598;28;20186;-64
2022/04/30 18:25:04;;;;;;;8.45;5.22;;;16.20;67.50;;;;;;10143436;28;20140;-63
2022/04/30 18:29:55;;;;;;;7.75;6.22;;;16.20;67.40;;;;;;10144187;28;20029;-62
2022/04/30 18:34:46;;;;;;;8.77;6.10;;;16.20;67.60;;;;;;10153213;28;20054;-62
2022/04/30 18:39:36;;;;;;;11.77;5.88;;;15.90;68.40;;;;;;10144679;28;20115;-61
2022/04/30 18:44:29;;;;;;;8.80;5.18;;;16.00;68.20;;;;;;10151018;28;20033;-65
2022/04/30 18:49:20;;;;;;;9.43;5.93;;;15.90;68.50;;;;;;10144720;28;20100;-61
2022/04/30 19:04:30;;;;;;;12.18;5.53;;;15.30;70.80;;;;;;10158478;28;20523;-61
2022/04/30 19:09:21;;;;;;;9.73;5.65;;;15.20;70.80;;;;;;10150310;28;20047;-63
2022/04/30 19:14:12;;;;;;;9.73;5.57;;;15.10;71.90;;;;;;10149036;28;20085;-62
2022/04/30 19:19:04;;;;;;;8.65;5.90;;;14.90;72.00;;;;;;10147271;28;20023;-63
2022/04/30 19:23:55;;;;;;;12.00;5.97;;;14.90;72.60;;;;;;10148339;28;20042;-63
2022/04/30 19:28:45;;;;;;;9.45;6.53;;;14.90;72.50;;;;;;10154543;28;20037;-62
2022/04/30 19:33:36;;;;;;;8.73;5.47;;;14.90;72.50;;;;;;10155226;28;20028;-63
2022/04/30 19:38:27;;;;;;;10.10;6.10;;;14.80;73.00;;;;;;10154301;28;20123;-63
2022/04/30 19:43:18;;;;;;;8.48;5.57;;;14.60;73.80;;;;;;10155477;28;20083;-61
2022/04/30 19:48:09;;;;;;;8.82;5.45;;;14.70;73.80;;;;;;10159831;28;20115;-63
2022/04/30 19:53:00;;;;;;;9.10;6.35;;;14.60;73.60;;;;;;10163127;28;20497;-63
2022/04/30 19:57:50;;;;;;;10.18;5.53;;;14.60;74.00;;;;;;10146374;28;20509;-62
2022/04/30 20:02:41;;;;;;;9.20;6.53;;;14.60;74.50;;;;;;10155900;28;20059;-61
2022/04/30 20:07:32;;;;;;;9.02;5.75;;;14.40;75.20;;;;;;10166772;28;20036;-63
2022/04/30 20:17:32;;;;;;;13.02;5.60;;;14.20;76.50;;;;;;10160476;28;20035;-63
2022/04/30 20:22:23;;;;;;;9.35;6.30;;;14.10;77.30;;;;;;10154204;28;20035;-64
2022/04/30 20:27:14;;;;;;;11.50;6.32;;;14.20;77.10;;;;;;10157890;28;20217;-62
2022/04/30 20:37:15;;;;;;;11.32;6.88;;;14.10;77.20;;;;;;10155434;28;20039;-62
2022/04/30 20:42:06;;;;;;;8.15;5.30;;;14.20;77.10;;;;;;10142365;28;20046;-65
2022/04/30 20:46:57;;;;;;;9.93;6.07;;;14.10;77.40;;;;;;10151424;28;20126;-64
2022/04/30 20:51:48;;;;;;;11.43;6.93;;;14.00;77.80;;;;;;10161287;28;20035;-62
2022/04/30 20:56:39;;;;;;;16.25;7.45;;;14.00;78.00;;;;;;10151185;28;20493;-64
2022/04/30 21:01:30;;;;;;;11.10;6.13;;;13.90;78.10;;;;;;10158581;28;20148;-62
2022/04/30 21:06:20;;;;;;;10.82;6.32;;;13.80;78.40;;;;;;10141764;28;20055;-61
2022/04/30 21:11:15;;;;;;;9.88;5.53;;;13.90;78.40;;;;;;10146402;28;20024;-62
2022/04/30 21:16:06;;;;;;;15.23;7.28;;;14.00;78.30;;;;;;10154308;28;20174;-63
2022/04/30 21:20:56;;;;;;;12.00;6.78;;;13.80;78.50;;;;;;10148234;28;20613;-63
2022/04/30 21:25:47;;;;;;;11.88;6.03;;;13.90;78.60;;;;;;10146626;28;20518;-62
2022/04/30 21:30:45;;;;;;;11.05;6.40;;;13.80;79.10;;;;;;10146185;28;20031;-62
2022/04/30 21:35:36;;;;;;;12.52;6.50;;;13.70;79.50;;;;;;10156341;28;20028;-62
2022/04/30 21:45:36;;;;;;;8.70;5.28;;;13.60;80.00;;;;;;10140429;28;20058;-63
2022/04/30 21:50:27;;;;;;;8.00;5.75;;;13.50;80.30;;;;;;10155437;28;20035;-62
2022/04/30 22:01:06;;;;;;;8.52;5.80;;;13.40;80.70;;;;;;10149698;28;20105;-61
2022/04/30 22:05:57;;;;;;;16.10;7.28;;;13.50;81.00;;;;;;10143807;28;20069;-63
2022/04/30 22:10:54;;;;;;;11.50;6.38;;;13.50;80.40;;;;;;10159028;28;20020;-62
2022/04/30 22:15:45;;;;;;;10.20;5.97;;;13.40;80.70;;;;;;10159613;28;20406;-62
2022/04/30 22:20:36;;;;;;;12.00;6.63;;;13.50;80.70;;;;;;10161779;28;20031;-65
2022/04/30 22:25:27;;;;;;;9.85;6.30;;;13.30;81.00;;;;;;10149330;28;20497;-63
2022/04/30 22:30:17;;;;;;;11.75;6.57;;;13.30;81.20;;;;;;10143932;28;20024;-63
2022/04/30 22:35:11;;;;;;;11.75;6.53;;;13.20;81.20;;;;;;10154894;28;20533;-64
2022/04/30 22:45:10;;;;;;;11.35;6.82;;;13.20;81.40;;;;;;10154881;28;20047;-62
2022/04/30 22:50:01;;;;;;;12.80;6.30;;;13.30;81.30;;;;;;10159881;28;20036;-64
2022/04/30 22:54:52;;;;;;;15.73;6.80;;;13.20;81.60;;;;;;10142999;28;20038;-63
2022/04/30 22:59:43;;;;;;;11.15;6.65;;;13.20;81.70;;;;;;10147122;28;20028;-64
2022/04/30 23:04:34;;;;;;;13.00;6.95;;;13.10;81.90;;;;;;10148379;28;20032;-63
2022/04/30 23:09:24;;;;;;;11.40;7.25;;;12.90;82.00;;;;;;10150933;28;20393;-64
2022/04/30 23:14:15;;;;;;;16.77;7.60;;;13.10;82.00;;;;;;10163868;28;20118;-62
2022/04/30 23:19:06;;;;;;;11.50;6.95;;;13.00;81.90;;;;;;10160954;28;20026;-62
2022/04/30 23:23:56;;;;;;;13.23;7.65;;;13.00;82.20;;;;;;10149051;28;20034;-62
2022/04/30 23:28:47;;;;;;;13.45;7.03;;;12.80;82.40;;;;;;10160384;28;20101;-62
2022/04/30 23:33:38;;;;;;;12.27;6.97;;;12.80;83.30;;;;;;10153931;28;20036;-61
2022/04/30 23:38:28;;;;;;;13.98;7.15;;;12.70;82.70;;;;;;10162238;28;20031;-64
2022/04/30 23:43:19;;;;;;;16.15;8.43;;;12.70;83.00;;;;;;10177452;28;20085;-64
2022/04/30 23:48:09;;;;;;;14.48;7.95;;;12.70;83.20;;;;;;10166611;28;20028;-62
2022/04/30 23:53:00;;;;;;;12.43;7.75;;;12.70;83.40;;;;;;10140222;28;20028;-63
2022/04/30 23:57:51;;;;;;;14.50;9.25;;;12.80;83.30;;;;;;10157979;28;20025;-62
